Time;durP1;ratioP1;P1;durP2;ratioP2;P2;SDS_P1;SDS_P2;PMS_P1;PMS_P2;Temp;Humidity;BMP_temperature;BMP_pressure;BME280_temperature;BME280_humidity;BME280_pressure;Samples;Min_cycle;Max_cycle;Signal;HPM_P1;HPM_P2
2022/01/20 00:02:16;;;;;;;25.88;8.98;;;;;;;2.46;100.00;102635.38;5209060;28;20089;-62
2022/01/20 00:04:52;;;;;;;12.40;6.60;;;;;;;2.48;100.00;102636.88;5208481;28;20037;-62
2022/01/20 00:07:35;;;;;;;19.10;8.68;;;;;;;2.42;100.00;102616.19;5208847;28;20029;-62
2022/01/20 00:26:30;;;;;;;23.38;11.38;;;;;;;1.74;100.00;102641.88;5226346;28;20520;-62
2022/01/20 00:29:01;;;;;;;24.05;11.40;;;;;;;1.73;100.00;102642.91;5208383;28;20033;-62
2022/01/20 00:34:16;;;;;;;20.63;9.93;;;;;;;1.47;100.00;102621.53;5225903;28;20025;-62
2022/01/20 00:39:35;;;;;;;15.88;8.40;;;;;;;1.40;100.00;102644.44;5226054;28;20585;-62
2022/01/20 00:42:05;;;;;;;37.55;8.43;;;;;;;1.32;100.00;102640.69;5208034;28;20037;-61
2022/01/20 00:44:36;;;;;;;26.38;9.27;;;;;;;1.24;100.00;102640.59;5225829;28;20036;-61
2022/01/20 00:47:07;;;;;;;8.10;6.57;;;;;;;1.12;100.00;102639.16;5208075;28;20060;-61
2022/01/20 00:49:37;;;;;;;8.80;6.95;;;;;;;1.09;100.00;102647.44;5207550;28;20481;-61
2022/01/20 00:52:09;;;;;;;16.85;7.43;;;;;;;1.12;100.00;102655.13;5207953;28;20087;-60
2022/01/20 00:54:39;;;;;;;15.80;7.45;;;;;;;1.12;100.00;102652.47;5207725;28;20102;-62
2022/01/20 00:57:10;;;;;;;10.23;7.63;;;;;;;1.15;100.00;102667.31;5207593;28;20032;-62
2022/01/20 00:59:41;;;;;;;7.25;6.53;;;;;;;1.02;100.00;102646.38;5207528;28;20087;-61
2022/01/20 01:02:12;;;;;;;16.20;8.85;;;;;;;1.14;100.00;102670.94;5207397;28;20374;-62
2022/01/20 01:04:42;;;;;;;19.30;7.40;;;;;;;1.07;100.00;102659.22;5207279;28;20044;-62
2022/01/20 01:09:52;;;;;;;22.02;8.25;;;;;;;1.04;100.00;102664.84;5225435;28;20489;-62
2022/01/20 01:15:34;;;;;;;15.38;7.15;;;;;;;0.96;100.00;102650.47;5180512;28;20043;-62
2022/01/20 01:21:16;;;;;;;12.90;7.63;;;;;;;1.09;100.00;102674.06;5191494;28;20047;-62
2022/01/20 01:23:46;;;;;;;10.98;6.95;;;;;;;1.22;100.00;102671.00;5207161;28;20394;-62
2022/01/20 01:26:18;;;;;;;10.48;6.65;;;;;;;1.27;100.00;102653.63;5225192;28;20036;-62
2022/01/20 01:28:49;;;;;;;31.20;8.55;;;;;;;1.50;100.00;102674.47;5207457;28;20044;-61
2022/01/20 01:34:10;;;;;;;16.45;7.45;;;;;;;1.65;100.00;102680.94;5225047;28;20127;-60
2022/01/20 01:39:29;;;;;;;8.80;7.32;;;;;;;1.71;100.00;102676.84;5225498;28;20099;-62
2022/01/20 01:42:00;;;;;;;16.83;9.02;;;;;;;1.83;100.00;102689.75;5207285;28;20375;-62
2022/01/20 01:44:31;;;;;;;28.52;8.05;;;;;;;1.91;100.00;102681.81;5206904;28;20159;-62
2022/01/20 01:47:01;;;;;;;12.73;9.00;;;;;;;1.86;100.00;102678.78;5207265;28;20405;-62
2022/01/20 01:49:32;;;;;;;23.27;8.02;;;;;;;1.85;100.00;102684.25;5206863;28;20148;-62
2022/01/20 01:52:03;;;;;;;7.75;6.93;;;;;;;1.90;100.00;102690.81;5207348;28;20483;-62
2022/01/20 01:54:33;;;;;;;18.90;10.50;;;;;;;1.56;100.00;102647.22;5206820;28;20095;-62
2022/01/20 01:57:09;;;;;;;13.93;7.72;;;;;;;1.96;100.00;102697.34;5207317;28;20052;-60
2022/01/20 01:59:39;;;;;;;18.08;7.55;;;;;;;1.97;100.00;102694.53;5207162;28;20037;-62
2022/01/20 02:02:10;;;;;;;10.68;8.82;;;;;;;1.90;100.00;102701.47;5207140;28;20043;-62
2022/01/20 02:04:40;;;;;;;10.88;6.75;;;;;;;1.99;100.00;102705.03;5206785;28;20039;-61
2022/01/20 02:18:48;;;;;;;8.18;7.00;;;;;;;1.75;100.00;102676.34;5225212;28;20507;-62
2022/01/20 02:21:19;;;;;;;28.13;7.78;;;;;;;1.65;100.00;102679.13;5206648;28;20126;-61
2022/01/20 02:23:49;;;;;;;13.13;6.78;;;;;;;1.63;100.00;102685.56;5242424;22;20190;-56
2022/01/20 02:26:20;;;;;;;9.30;6.70;;;;;;;1.68;100.00;102692.13;5227149;28;20121;-55
2022/01/20 02:28:50;;;;;;;13.65;6.50;;;;;;;1.75;100.00;102702.97;5247729;28;20039;-55
2022/01/20 02:31:21;;;;;;;19.20;7.18;;;;;;;1.78;100.00;102696.50;5231466;28;20040;-55
2022/01/20 02:33:51;;;;;;;14.63;6.47;;;;;;;1.83;100.00;102710.22;5231141;28;20032;-55
2022/01/20 02:36:22;;;;;;;15.65;6.30;;;;;;;1.88;100.00;102692.78;5231087;28;20512;-57
2022/01/20 02:38:57;;;;;;;12.77;6.05;;;;;;;1.95;100.00;102699.19;5249012;28;20550;-55
2022/01/20 02:47:15;;;;;;;12.63;5.72;;;;;;;2.11;100.00;102689.63;5250303;28;20457;-58
2022/01/20 02:49:46;;;;;;;11.55;5.57;;;;;;;2.16;100.00;102688.16;5230474;28;20064;-60
2022/01/20 02:52:17;;;;;;;10.70;5.07;;;;;;;2.24;100.00;102693.56;5231014;28;20518;-60
2022/01/20 02:54:48;;;;;;;14.18;4.43;;;;;;;2.31;100.00;102696.44;5230196;28;20036;-59
2022/01/20 02:57:18;;;;;;;8.70;5.75;;;;;;;2.28;100.00;102684.28;5230781;28;20032;-60
2022/01/20 02:59:49;;;;;;;12.05;5.90;;;;;;;2.34;100.00;102686.28;5248722;28;20408;-60
2022/01/20 03:02:32;;;;;;;9.68;5.20;;;;;;;2.56;100.00;102700.09;5230961;28;20028;-59
2022/01/20 03:05:03;;;;;;;13.15;6.65;;;;;;;2.70;100.00;102699.50;5230797;28;20033;-60
2022/01/20 03:07:33;;;;;;;12.40;4.15;;;;;;;2.79;100.00;102705.72;5230840;28;20504;-59
2022/01/20 03:10:06;;;;;;;7.10;3.30;;;;;;;2.73;100.00;102688.50;5338883;22;22161;-86
2022/01/20 03:12:36;;;;;;;7.15;3.72;;;;;;;2.37;100.00;102629.16;5246828;28;20055;-86
2022/01/20 03:15:07;;;;;;;7.60;3.88;;;;;;;2.59;100.00;102641.94;5274092;28;20031;-87
2022/01/20 03:23:37;;;;;;;2.85;2.70;;;;;;;2.85;100.00;102699.75;5242847;28;20437;-87
2022/01/20 03:26:22;;;;;;;10.75;3.70;;;;;;;2.70;100.00;102705.66;5236478;28;20032;-87
2022/01/20 03:28:53;;;;;;;3.70;3.42;;;;;;;2.24;100.00;102597.59;5235575;28;20058;-86
2022/01/20 03:31:24;;;;;;;2.80;2.70;;;;;;;2.56;100.00;102662.75;5251515;28;20063;-88
2022/01/20 03:34:29;;;;;;;12.20;4.20;;;;;;;2.53;100.00;102682.56;5251628;28;20044;-88
2022/01/20 03:37:03;;;;;;;6.95;4.20;;;;;;;1.88;100.00;102590.72;5252513;28;20028;-86
2022/01/20 03:39:34;;;;;;;9.98;4.35;;;;;;;1.82;100.00;102597.50;5253607;28;20071;-88
2022/01/20 03:42:04;;;;;;;7.20;4.20;;;;;;;1.38;100.00;102510.66;5255538;28;20029;-87
2022/01/20 03:44:34;;;;;;;6.07;5.68;;;;;;;2.00;100.00;102621.44;5255467;28;20340;-87
2022/01/20 03:47:08;;;;;;;8.13;4.18;;;;;;;2.50;100.00;102696.22;5237479;28;20032;-87
2022/01/20 03:49:51;;;;;;;6.22;4.53;;;;;;;2.26;100.00;102656.94;5236086;28;20020;-86
2022/01/20 03:52:21;;;;;;;6.80;4.88;;;;;;;2.48;100.00;102684.88;5252772;28;20115;-88
2022/01/20 03:54:52;;;;;;;6.68;5.20;;;;;;;2.01;100.00;102588.50;5233596;28;20125;-87
2022/01/20 03:57:22;;;;;;;8.75;5.75;;;;;;;2.13;100.00;102615.69;5236019;28;20040;-87
2022/01/20 03:59:53;;;;;;;5.57;4.28;;;;;;;2.44;100.00;102672.84;5235686;28;20024;-85
2022/01/20 04:02:24;;;;;;;4.13;3.92;;;;;;;2.16;100.00;102610.03;5254270;28;20028;-85
2022/01/20 04:04:54;;;;;;;4.35;3.97;;;;;;;2.21;100.00;102629.91;5267595;28;20101;-86
2022/01/20 04:07:24;;;;;;;5.68;4.30;;;;;;;2.02;100.00;102590.97;5252618;28;20032;-86
2022/01/20 04:09:55;;;;;;;3.78;3.47;;;;;;;2.72;100.00;102693.00;5251736;28;20096;-85
2022/01/20 04:12:25;;;;;;;4.88;3.55;;;;;;;2.01;100.00;102575.16;5248548;28;20045;-86
2022/01/20 04:18:26;;;;;;;4.70;4.38;;;;;;;2.70;100.00;102710.16;5264067;28;20029;-86
2022/01/20 04:20:56;;;;;;;5.10;4.50;;;;;;;1.38;100.00;102486.72;5245628;28;20048;-85
2022/01/20 04:23:30;;;;;;;4.97;4.63;;;;;;;2.13;100.00;102613.84;5262499;28;20497;-86
2022/01/20 04:26:00;;;;;;;6.57;4.53;;;;;;;1.89;100.00;102595.91;5263000;28;20096;-86
2022/01/20 04:31:11;;;;;;;6.35;5.00;;;;;;;2.46;100.00;102692.19;4548759;26;20405;-60
2022/01/20 04:33:42;;;;;;;6.53;4.00;;;;;;;2.43;100.00;102697.84;5207813;28;20229;-60
2022/01/20 04:36:12;;;;;;;5.60;4.00;;;;;;;2.25;100.00;102675.75;5207972;28;20571;-60
2022/01/20 04:38:43;;;;;;;7.47;3.58;;;;;;;2.24;100.00;102688.22;5208156;28;20378;-60
2022/01/20 04:41:13;;;;;;;7.47;5.18;;;;;;;2.17;100.00;102687.19;5208358;28;20056;-60
2022/01/20 04:58:21;;;;;;;7.35;4.82;;;;;;;2.10;100.00;102686.13;5226381;28;20052;-59
2022/01/20 05:00:52;;;;;;;8.50;4.30;;;;;;;2.14;100.00;102698.16;5225858;28;20033;-60
2022/01/20 05:03:24;;;;;;;4.32;3.83;;;;;;;2.09;100.00;102696.94;5207873;28;20507;-59
2022/01/20 05:05:55;;;;;;;21.98;6.35;;;;;;;2.03;100.00;102685.06;5207896;28;20497;-59
2022/01/20 05:18:01;;;;;;;8.38;5.75;;;;;;;1.68;100.00;102705.44;5211054;28;20041;-60
2022/01/20 05:20:32;;;;;;;20.30;7.47;;;;;;;1.60;100.00;102704.53;5207616;28;20033;-59
2022/01/20 05:23:02;;;;;;;5.95;5.50;;;;;;;1.57;100.00;102710.16;5224121;28;20044;-60
2022/01/20 05:25:33;;;;;;;7.25;6.53;;;;;;;1.60;100.00;102713.34;5224246;28;20492;-59
2022/01/20 05:28:03;;;;;;;6.97;6.28;;;;;;;1.76;100.00;102725.13;5225694;28;20099;-59
2022/01/20 05:30:34;;;;;;;11.82;6.75;;;;;;;1.86;100.00;102726.72;5224152;28;20509;-59
2022/01/20 05:33:05;;;;;;;9.68;4.40;;;;;;;1.97;100.00;102723.00;5224600;28;20378;-59
2022/01/20 05:35:36;;;;;;;15.77;5.75;;;;;;;1.83;100.00;102705.72;5224033;28;20029;-59
2022/01/20 05:38:13;;;;;;;18.20;5.70;;;;;;;2.03;100.00;102728.53;5224464;28;20043;-60
2022/01/20 05:40:45;;;;;;;8.02;4.70;;;;;;;2.01;100.00;102733.22;5229464;28;20052;-65
2022/01/20 05:43:16;;;;;;;12.18;8.23;;;;;;;2.01;100.00;102751.03;5228768;28;20116;-61
2022/01/20 05:45:46;;;;;;;12.27;6.10;;;;;;;2.07;100.00;102755.72;5228567;28;20075;-61
2022/01/20 05:48:20;;;;;;;9.48;5.68;;;;;;;2.22;100.00;102758.69;5230211;28;20040;-60
2022/01/20 05:50:51;;;;;;;10.63;4.88;;;;;;;2.36;100.00;102766.09;5227242;28;20037;-61
2022/01/20 05:53:21;;;;;;;14.27;5.95;;;;;;;2.40;100.00;102759.47;5223858;28;20056;-59
2022/01/20 05:55:52;;;;;;;11.52;4.30;;;;;;;2.45;100.00;102751.84;5208770;28;20541;-61
2022/01/20 05:58:23;;;;;;;16.60;5.90;;;;;;;2.43;100.00;102758.31;5205381;28;20050;-58
2022/01/20 06:00:54;;;;;;;13.48;5.30;;;;;;;2.45;100.00;102767.00;5206902;28;20041;-61
2022/01/20 06:03:37;;;;;;;9.32;5.43;;;;;;;2.47;100.00;102781.88;5208062;28;20556;-62
2022/01/20 06:06:10;;;;;;;15.20;5.93;;;;;;;2.49;100.00;102781.72;5210873;28;20393;-61
2022/01/20 06:08:42;;;;;;;15.18;5.35;;;;;;;2.50;100.00;102778.06;5211333;28;20045;-61
2022/01/20 06:11:12;;;;;;;9.23;6.57;;;;;;;2.52;100.00;102781.41;5212203;28;20044;-62
2022/01/20 06:13:43;;;;;;;16.50;6.30;;;;;;;2.45;100.00;102778.50;5212779;28;20064;-62
2022/01/20 06:16:13;;;;;;;10.27;5.18;;;;;;;2.44;100.00;102797.34;5212571;28;20037;-62
2022/01/20 06:18:44;;;;;;;12.90;4.65;;;;;;;2.26;100.00;102773.38;5212339;28;20034;-62
2022/01/20 06:21:15;;;;;;;26.85;6.50;;;;;;;2.31;100.00;102789.75;5212123;28;20049;-61
2022/01/20 06:23:45;;;;;;;11.52;5.80;;;;;;;2.26;100.00;102794.72;5212027;28;20128;-60
2022/01/20 06:26:16;;;;;;;10.77;4.60;;;;;;;2.24;100.00;102802.84;5213707;28;20038;-59
2022/01/20 06:28:46;;;;;;;19.27;5.63;;;;;;;2.23;100.00;102805.66;5215766;28;20156;-60
2022/01/20 06:31:17;;;;;;;10.05;5.53;;;;;;;2.11;100.00;102796.22;5214707;28;20366;-61
2022/01/20 06:33:47;;;;;;;8.77;5.68;;;;;;;2.19;100.00;102801.63;5211994;28;20560;-60
2022/01/20 06:36:18;;;;;;;8.30;4.68;;;;;;;2.21;100.00;102804.97;5211994;28;20029;-61
2022/01/20 06:38:48;;;;;;;7.03;5.13;;;;;;;2.22;100.00;102818.16;5212688;28;20041;-61
2022/01/20 06:41:19;;;;;;;4.10;3.80;;;;;;;2.21;100.00;102839.63;5211858;28;20034;-60
2022/01/20 06:43:49;;;;;;;6.88;6.18;;;;;;;2.24;100.00;102836.66;5209685;28;20036;-62
2022/01/20 06:46:20;;;;;;;7.47;3.95;;;;;;;2.21;100.00;102831.63;5210166;28;20493;-61
2022/01/20 06:48:50;;;;;;;4.28;4.03;;;;;;;2.14;100.00;102833.22;5210507;28;20037;-62
2022/01/20 06:51:20;;;;;;;6.50;4.35;;;;;;;2.13;100.00;102836.88;5211338;28;20037;-60
2022/01/20 06:53:51;;;;;;;12.98;4.95;;;;;;;2.08;100.00;102841.81;5210174;28;20053;-61
2022/01/20 06:56:21;;;;;;;8.57;5.78;;;;;;;2.03;100.00;102836.94;5211168;28;20040;-60
2022/01/20 06:58:52;;;;;;;6.78;4.65;;;;;;;1.96;100.00;102839.41;5210773;28;20096;-62
2022/01/20 07:01:23;;;;;;;14.48;5.13;;;;;;;1.84;100.00;102840.59;5208495;28;20397;-59
2022/01/20 07:03:53;;;;;;;6.32;5.72;;;;;;;1.78;100.00;102843.84;5207423;28;20441;-61
2022/01/20 07:06:24;;;;;;;8.90;5.05;;;;;;;1.61;100.00;102845.50;5207726;28;20696;-62
2022/01/20 07:08:54;;;;;;;9.18;5.03;;;;;;;1.64;100.00;102858.53;5206873;28;20037;-62
2022/01/20 07:11:25;;;;;;;12.18;5.75;;;;;;;1.63;100.00;102869.31;5206709;28;20026;-62
2022/01/20 07:13:55;;;;;;;8.98;6.18;;;;;;;1.62;100.00;102876.47;5208208;28;20084;-61
2022/01/20 07:16:26;;;;;;;10.05;5.35;;;;;;;1.63;100.00;102879.97;5210538;28;20036;-60
2022/01/20 07:18:57;;;;;;;10.40;5.78;;;;;;;1.31;100.00;102827.16;5210967;28;20064;-61
2022/01/20 07:21:27;;;;;;;6.97;5.43;;;;;;;1.73;100.00;102887.94;5210790;28;20037;-59
2022/01/20 07:23:58;;;;;;;9.48;6.82;;;;;;;1.76;100.00;102898.25;5215127;28;20382;-59
2022/01/20 07:26:28;;;;;;;5.65;5.10;;;;;;;1.80;100.00;102904.97;5216921;28;20037;-62
2022/01/20 07:28:59;;;;;;;10.77;6.85;;;;;;;1.80;100.00;102897.81;5217069;28;20041;-61
2022/01/20 07:31:30;;;;;;;11.35;5.68;;;;;;;1.83;100.00;102918.00;5216683;28;20474;-62
2022/01/20 07:34:01;;;;;;;11.15;7.00;;;;;;;1.51;100.00;102873.16;5212987;28;20517;-60
2022/01/20 07:36:31;;;;;;;5.30;4.93;;;;;;;1.82;100.00;102916.31;5210017;28;20030;-61
2022/01/20 07:39:03;;;;;;;6.90;5.72;;;;;;;1.69;100.00;102895.38;5210041;28;20113;-62
2022/01/20 07:41:33;;;;;;;9.38;5.95;;;;;;;1.82;100.00;102919.81;5209958;28;20029;-59
2022/01/20 07:44:04;;;;;;;6.55;5.97;;;;;;;1.82;100.00;102933.13;5211169;28;20091;-61
2022/01/20 07:46:35;;;;;;;11.82;6.50;;;;;;;1.81;100.00;102920.81;5199813;28;20049;-61
2022/01/20 07:49:05;;;;;;;9.98;5.72;;;;;;;1.81;100.00;102936.78;5199972;28;20041;-60
2022/01/20 07:51:36;;;;;;;10.32;5.35;;;;;;;1.84;100.00;102936.50;5210876;28;20029;-61
2022/01/20 07:54:07;;;;;;;6.35;5.95;;;;;;;1.88;100.00;102947.69;5211691;28;20033;-61
2022/01/20 07:56:37;;;;;;;14.65;6.22;;;;;;;1.74;100.00;102916.22;5210984;28;20033;-61
2022/01/20 07:59:08;;;;;;;6.20;5.65;;;;;;;1.91;100.00;102942.91;5211022;28;20087;-59
2022/01/20 08:01:39;;;;;;;8.35;6.40;;;;;;;1.88;100.00;102942.38;5210175;28;20567;-61
2022/01/20 08:04:09;;;;;;;11.10;6.88;;;;;;;1.87;100.00;102925.53;5210857;28;20034;-61
2022/01/20 08:06:40;;;;;;;13.40;6.95;;;;;;;1.78;100.00;102942.41;5205518;28;20124;-60
2022/01/20 08:09:10;;;;;;;12.32;6.95;;;;;;;1.62;100.00;102942.19;5204981;28;20556;-60
2022/01/20 08:11:41;;;;;;;8.23;6.97;;;;;;;1.32;100.00;102917.50;5205133;28;20044;-61
2022/01/20 08:14:12;;;;;;;8.95;7.03;;;;;;;1.35;100.00;102941.19;5204620;28;20057;-60
2022/01/20 08:16:42;;;;;;;16.05;7.57;;;;;;;1.22;100.00;102945.97;5204970;28;20064;-60
2022/01/20 08:19:13;;;;;;;17.23;6.95;;;;;;;1.17;100.00;102952.69;5205882;28;20038;-60
2022/01/20 08:21:43;;;;;;;6.90;6.35;;;;;;;1.15;100.00;102952.84;5204769;28;20056;-60
2022/01/20 08:24:14;;;;;;;10.77;5.88;;;;;;;1.09;100.00;102937.47;5223646;22;20535;-60
2022/01/20 08:26:44;;;;;;;16.77;8.10;;;;;;;1.29;100.00;102947.06;5224028;28;20036;-60
2022/01/20 08:29:15;;;;;;;16.27;9.27;;;;;;;1.49;100.00;102952.31;5230735;28;20140;-59
2022/01/20 08:31:45;;;;;;;9.20;8.00;;;;;;;1.57;100.00;102942.63;5231594;28;20033;-63
2022/01/20 08:34:16;;;;;;;11.60;9.15;;;;;;;1.78;100.00;102958.38;5231188;28;20090;-63
2022/01/20 08:36:46;;;;;;;14.60;8.70;;;;;;;1.89;100.00;102960.03;5229974;28;20086;-63
2022/01/20 08:39:39;;;;;;;20.27;9.45;;;;;;;1.97;100.00;102963.66;5229638;28;20056;-63
2022/01/20 08:42:11;;;;;;;10.50;7.32;;;;;;;2.05;100.00;102957.56;5230209;28;20484;-63
2022/01/20 08:44:41;;;;;;;11.73;8.13;;;;;;;2.19;100.00;102972.22;5228346;28;20031;-60
2022/01/20 08:47:17;;;;;;;14.40;7.30;;;;;;;2.26;100.00;102986.63;5227708;28;20041;-60
2022/01/20 08:49:49;;;;;;;17.83;8.93;;;;;;;2.30;100.00;102972.03;5227703;28;20036;-60
2022/01/20 08:52:21;;;;;;;12.90;6.88;;;;;;;2.32;100.00;102978.84;5227729;28;20037;-60
2022/01/20 08:54:51;;;;;;;7.80;6.53;;;;;;;2.40;100.00;102986.13;5227584;28;20032;-60
2022/01/20 08:57:22;;;;;;;10.55;6.38;;;;;;;2.46;100.00;102992.69;5227217;28;20036;-60
2022/01/20 08:59:54;;;;;;;6.55;6.05;;;;;;;2.53;100.00;102994.59;5227092;28;20036;-60
2022/01/20 09:02:25;;;;;;;13.48;6.30;;;;;;;2.58;100.00;102997.66;5226879;28;20358;-60
2022/01/20 09:04:55;;;;;;;13.30;8.27;;;;;;;2.61;100.00;103008.00;5227140;28;20036;-60
2022/01/20 09:07:26;;;;;;;24.40;8.27;;;;;;;2.65;100.00;103000.53;5226943;28;20067;-60
2022/01/20 09:09:59;;;;;;;13.80;8.30;;;;;;;2.62;100.00;103004.34;5225416;28;20095;-60
2022/01/20 09:18:04;;;;;;;13.32;9.02;;;;;;;2.78;100.00;103021.53;5227075;28;20044;-60
2022/01/20 09:20:37;;;;;;;13.15;7.13;;;;;;;2.81;100.00;103029.22;5226579;28;20029;-60
2022/01/20 09:23:08;;;;;;;13.88;9.05;;;;;;;2.81;100.00;103034.56;5225332;28;20045;-60
2022/01/20 09:25:40;;;;;;;11.52;8.18;;;;;;;2.77;100.00;103035.84;5225883;28;20037;-58
2022/01/20 09:28:10;;;;;;;18.35;9.10;;;;;;;2.88;100.00;103035.63;5225752;28;20032;-59
2022/01/20 09:30:41;;;;;;;17.30;8.00;;;;;;;2.93;100.00;103031.50;5225167;28;20056;-60
2022/01/20 09:33:24;;;;;;;8.70;6.50;;;;;;;2.97;100.00;103027.53;5226188;28;20057;-60
2022/01/20 09:35:55;;;;;;;19.30;7.78;;;;;;;2.81;100.00;102992.72;5227092;28;20033;-63
2022/01/20 09:38:27;;;;;;;8.30;6.47;;;;;;;3.01;100.00;103033.41;5230395;28;20032;-63
2022/01/20 09:40:58;;;;;;;11.00;6.65;;;;;;;2.96;100.00;103023.19;5226311;28;20230;-63
2022/01/20 09:43:29;;;;;;;9.35;6.72;;;;;;;3.00;100.00;103026.41;5212784;28;20044;-63
2022/01/20 09:46:01;;;;;;;24.48;9.82;;;;;;;2.95;100.00;102996.66;5213134;28;20475;-63
2022/01/20 09:48:32;;;;;;;9.15;7.43;;;;;;;3.12;100.00;103014.50;5213351;28;20472;-61
2022/01/20 09:51:03;;;;;;;7.63;5.93;;;;;;;3.21;100.00;103018.06;5213889;28;20048;-63
2022/01/20 09:53:33;;;;;;;12.52;5.55;;;;;;;3.23;100.00;103022.25;5212337;28;20421;-62
2022/01/20 09:56:04;;;;;;;9.40;8.40;;;;;;;3.13;100.00;103000.16;5213147;28;20033;-60
2022/01/20 09:58:34;;;;;;;6.43;5.38;;;;;;;3.33;100.00;103035.53;5212564;28;20071;-61
2022/01/20 10:01:05;;;;;;;11.93;4.90;;;;;;;3.36;100.00;103036.06;5212066;28;20033;-62
2022/01/20 10:03:39;;;;;;;12.60;4.22;;;;;;;3.32;100.00;103026.66;5212249;28;20029;-63
2022/01/20 10:06:09;;;;;;;8.38;5.93;;;;;;;3.42;100.00;103044.44;5212498;28;20040;-63
2022/01/20 10:08:40;;;;;;;25.42;6.70;;;;;;;3.50;100.00;103060.50;5212411;28;20029;-63
2022/01/20 10:11:10;;;;;;;10.35;5.28;;;;;;;3.46;100.00;103064.50;5212517;28;20076;-62
2022/01/20 10:13:42;;;;;;;9.80;6.60;;;;;;;3.41;100.00;103056.13;5212661;28;20033;-62
2022/01/20 10:16:16;;;;;;;9.65;5.82;;;;;;;3.57;100.00;103072.25;5212188;28;20045;-62
2022/01/20 10:18:57;;;;;;;10.98;4.72;;;;;;;3.61;100.00;103076.31;5212388;28;20083;-63
2022/01/20 10:21:33;;;;;;;5.90;4.28;;;;;;;3.64;100.00;103070.66;5212295;28;20040;-63
2022/01/20 10:24:06;;;;;;;8.48;5.53;;;;;;;3.67;100.00;103076.53;5212868;28;20045;-62
2022/01/20 10:26:38;;;;;;;5.35;5.05;;;;;;;3.75;100.00;103081.09;5213730;28;20025;-63
2022/01/20 10:29:14;;;;;;;11.00;4.35;;;;;;;3.68;100.00;103070.19;5213438;28;20029;-62
2022/01/20 10:31:49;;;;;;;8.80;3.72;;;;;;;3.89;100.00;103087.69;5213486;28;20536;-62
2022/01/20 10:34:35;;;;;;;10.65;4.93;;;;;;;3.94;100.00;103085.38;5213161;28;20037;-62
2022/01/20 10:37:14;;;;;;;10.38;4.78;;;;;;;3.89;100.00;103088.53;5212494;28;20069;-63
2022/01/20 10:39:47;;;;;;;13.80;5.15;;;;;;;4.01;100.00;103091.78;5212646;28;20308;-62
2022/01/20 10:42:21;;;;;;;6.30;5.57;;;;;;;4.03;100.00;103092.47;5212327;28;20041;-62
2022/01/20 10:44:56;;;;;;;13.23;6.13;;;;;;;3.91;100.00;103105.25;5212483;28;20057;-62
2022/01/20 10:47:29;;;;;;;9.05;4.80;;;;;;;3.82;100.00;103097.31;5212095;28;20107;-62
2022/01/20 10:50:15;;;;;;;11.90;6.13;;;;;;;3.77;100.00;103103.13;5209378;28;20038;-62
2022/01/20 10:52:46;;;;;;;12.02;5.72;;;;;;;3.74;100.00;103092.78;5209308;28;20485;-62
2022/01/20 10:55:27;;;;;;;6.35;4.75;;;;;;;3.93;100.00;103105.09;5208416;28;20028;-62
2022/01/20 10:58:23;;;;;;;12.88;5.53;;;;;;;3.90;100.00;103100.88;5209055;28;20101;-63
2022/01/20 11:00:55;;;;;;;6.43;3.67;;;;;;;3.99;100.00;103097.28;5208011;28;20025;-62
2022/01/20 11:03:27;;;;;;;4.88;3.70;;;;;;;4.01;100.00;103105.97;5209221;28;20496;-63
2022/01/20 11:05:59;;;;;;;4.13;3.75;;;;;;;4.06;100.00;103103.66;5208286;28;20512;-60
2022/01/20 11:08:29;;;;;;;3.47;3.25;;;;;;;4.15;100.00;103085.00;5208190;28;20033;-62
2022/01/20 11:11:02;;;;;;;10.77;5.75;;;;;;;4.46;100.00;103109.38;5208102;28;20056;-62
2022/01/20 11:13:32;;;;;;;7.65;3.95;;;;;;;4.67;100.00;103112.47;5207937;28;20045;-61
2022/01/20 11:16:03;;;;;;;12.05;5.13;;;;;;;4.69;100.00;103105.94;5208712;28;20037;-62
2022/01/20 11:18:34;;;;;;;16.08;6.20;;;;;;;4.78;100.00;103103.31;5207962;28;20033;-62
2022/01/20 11:21:05;;;;;;;20.33;4.35;;;;;;;4.77;100.00;103101.63;5208357;28;20033;-61
2022/01/20 11:23:42;;;;;;;7.13;4.28;;;;;;;4.85;100.00;103104.34;5208363;28;20037;-62
2022/01/20 11:26:12;;;;;;;7.30;4.63;;;;;;;4.82;100.00;103100.16;5207852;28;20543;-62
2022/01/20 11:28:57;;;;;;;5.50;4.97;;;;;;;4.79;100.00;103099.63;5208052;28;20034;-62
2022/01/20 11:31:30;;;;;;;18.02;4.97;;;;;;;4.80;100.00;103104.00;5208627;28;20447;-62
2022/01/20 11:34:01;;;;;;;5.93;4.47;;;;;;;4.72;100.00;103100.28;5207815;28;20076;-62
2022/01/20 11:36:32;;;;;;;13.75;4.68;;;;;;;4.64;100.00;103108.28;5208841;28;20037;-61
2022/01/20 11:39:05;;;;;;;10.30;4.43;;;;;;;4.47;100.00;103100.34;5208844;28;20144;-62
2022/01/20 11:41:52;;;;;;;8.48;5.38;;;;;;;4.41;100.00;103107.19;5207510;28;20030;-62
2022/01/20 11:44:29;;;;;;;9.35;4.47;;;;;;;4.13;100.00;103078.97;5206979;28;20098;-62
2022/01/20 11:47:09;;;;;;;6.80;3.58;;;;;;;4.20;100.00;103109.41;5207671;28;20037;-62
2022/01/20 11:49:43;;;;;;;10.65;6.20;;;;;;;4.18;100.00;103103.38;5210051;28;20038;-62
2022/01/20 11:52:27;;;;;;;4.88;4.38;;;;;;;3.87;100.00;103095.84;5211152;28;20029;-62
2022/01/20 11:54:58;;;;;;;3.95;3.35;;;;;;;3.75;100.00;103109.66;5210035;28;20124;-62
2022/01/20 11:57:30;;;;;;;16.52;6.55;;;;;;;3.58;100.00;103100.66;5209041;28;20444;-62
2022/01/20 12:00:15;;;;;;;11.65;5.05;;;;;;;3.46;100.00;103102.75;5207862;28;20375;-64
2022/01/20 12:02:46;;;;;;;10.65;4.95;;;;;;;3.42;100.00;103103.19;5207795;28;20025;-62
2022/01/20 12:05:20;;;;;;;5.05;3.90;;;;;;;3.52;100.00;103102.09;5207479;28;20548;-61
2022/01/20 12:07:50;;;;;;;4.47;3.95;;;;;;;3.65;100.00;103099.88;5207255;28;20064;-62
2022/01/20 12:10:26;;;;;;;8.95;4.20;;;;;;;3.78;100.00;103091.44;5206595;28;20277;-61
2022/01/20 12:13:12;;;;;;;7.22;3.85;;;;;;;3.91;100.00;103086.53;5206813;28;20060;-62
2022/01/20 12:15:55;;;;;;;8.45;4.82;;;;;;;3.94;100.00;103075.53;5206618;28;20537;-64
2022/01/20 12:18:30;;;;;;;6.68;3.83;;;;;;;4.08;100.00;103079.44;5206829;28;20029;-60
2022/01/20 12:21:04;;;;;;;9.52;3.75;;;;;;;4.03;100.00;103055.88;5207246;28;20034;-62
2022/01/20 12:23:45;;;;;;;5.72;3.60;;;;;;;4.21;100.00;103077.19;5207169;28;20047;-62
2022/01/20 12:26:16;;;;;;;7.70;3.45;;;;;;;4.31;100.00;103077.06;5206864;28;20049;-62
2022/01/20 12:28:47;;;;;;;12.57;4.93;;;;;;;4.27;100.00;103047.13;5206873;28;20049;-62
2022/01/20 12:31:18;;;;;;;9.43;4.43;;;;;;;4.57;100.00;103061.78;5207802;28;20034;-62
2022/01/20 12:33:52;;;;;;;6.95;4.93;;;;;;;4.76;100.00;103044.59;5207908;28;20072;-61
2022/01/20 12:36:23;;;;;;;5.38;3.55;;;;;;;4.86;100.00;103036.41;5207812;28;20497;-62
2022/01/20 12:38:53;;;;;;;15.40;3.90;;;;;;;5.09;100.00;103059.72;5207703;28;20038;-63
2022/01/20 12:41:24;;;;;;;4.28;3.78;;;;;;;5.10;100.00;103041.78;5207145;28;20038;-62
2022/01/20 12:44:03;;;;;;;8.13;3.95;;;;;;;4.92;100.00;103033.06;5208229;28;20038;-63
2022/01/20 12:46:36;;;;;;;10.45;2.72;;;;;;;5.15;100.00;103049.34;5208737;28;20060;-63
2022/01/20 12:49:11;;;;;;;3.78;2.85;;;;;;;5.17;100.00;103045.50;5207424;28;20050;-63
2022/01/20 12:51:45;;;;;;;7.88;2.60;;;;;;;5.33;100.00;103047.31;5208912;28;20025;-63
2022/01/20 12:54:28;;;;;;;4.63;3.92;;;;;;;5.65;100.00;103030.38;5208860;28;20044;-63
2022/01/20 12:57:02;;;;;;;6.32;3.35;;;;;;;5.73;100.00;103033.88;5206942;28;20498;-62
2022/01/20 12:59:34;;;;;;;7.18;4.55;;;;;;;5.70;100.00;103023.50;5203810;28;20087;-63
2022/01/20 13:02:10;;;;;;;8.25;3.60;;;;;;;5.67;100.00;103025.69;5206535;28;20111;-62
2022/01/20 13:04:41;;;;;;;5.80;3.50;;;;;;;5.37;100.00;102966.44;5204974;28;20026;-63
2022/01/20 13:07:16;;;;;;;4.43;4.03;;;;;;;5.77;100.00;103021.78;5205120;28;20481;-62
2022/01/20 13:09:52;;;;;;;4.13;3.83;;;;;;;5.69;100.00;103023.66;5208395;28;20497;-63
2022/01/20 13:12:40;;;;;;;9.27;3.58;;;;;;;5.45;100.00;103045.16;5207967;28;20044;-60
2022/01/20 13:15:19;;;;;;;5.18;3.30;;;;;;;5.18;100.00;103049.84;5207799;28;20063;-61
2022/01/20 13:18:04;;;;;;;11.80;3.90;;;;;;;4.67;100.00;103016.13;5208647;28;20061;-61
2022/01/20 13:20:41;;;;;;;11.77;3.75;;;;;;;4.87;100.00;103064.88;5208034;28;20064;-63
2022/01/20 13:26:02;;;;;;;7.78;3.88;;;;;;;5.00;100.00;103063.38;5209017;28;20037;-63